Terminal Aerodrome Forecast
Issued by NWS Duluth, MN

Home | Current Version | Previous Version | Text Only | Print | Product List | Glossary On
Versions: 1 2 3 4 5 6 7 8 9 10 11 12 13 14 15 16 17 18 19 20 21 22
000
FTUS43 KDLH 210500
TAFINL
TAF
KINL 210539Z 2106/2206 VRB04KT P6SM BKN250
     FM211200 14006KT P6SM SCT100 BKN250
     FM211600 12007KT P6SM VCSH BKN100
     FM211900 12005KT P6SM VCTS SCT045CB BKN100
     FM220000 12004KT 4SM BR BKN250=

USA.gov is the U.S. government's official web portal to all federal, state and local government web resources and services.